Last 24 Hours

Coyote Canyon

10 Minute Data | America/Los_Angeles
as of 10/14/19 12:18 PM PDT
Date & Time Temp (°F) Dew Pt (°F) RH (%) Wind Spd (mph) Wind Dir (°) Wind Gust (mph) Wind Gst Dir (°) Daily Max Temp (°F) Daily Min Temp (°F)
10/14/19 - 1210 69.9 5.1 8 3.7 SW | 222 8.8 SSW | 210 70.9 49.3
10/14/19 - 1200 69.2 2.8 7 5.7 SSW | 209 11.6 SW | 217 70.8 49.3
10/14/19 - 1150 68.4 0.2 6 1.5 NE | 42 3.9 SE | 131 70.2 49.3
10/14/19 - 1140 68.9 2.2 7 4.5 SE | 146 9.2 S | 169 70.2 49.3
10/14/19 - 1130 68.2 2.4 7 5.1 S | 188 10.1 SSW | 201 69.6 49.3
10/14/19 - 1120 67.9 1.7 7 3.2 S | 176 9.2 S | 174 69.6 49.3
10/14/19 - 1110 65.7 3.8 8 3.7 W | 280 7.5 W | 261 66.4 49.3
10/14/19 - 1100 64.8 4.3 9 4.5 WNW | 296 8.3 NW | 304 65.7 49.3
10/14/19 - 1050 64.2 4.6 9 7.1 WNW | 290 10.3 WNW | 288 64.8 49.3
10/14/19 - 1040 63.7 3.6 9 6.8 WNW | 293 10.7 W | 274 64.2 49.3
10/14/19 - 1030 63.1 2.2 9 6.9 WNW | 287 10.5 WNW | 286 63.8 49.3
10/14/19 - 1020 63.0 2.7 9 6.6 WNW | 289 10.7 W | 266 63.3 49.3
10/14/19 - 1010 62.3 5.4 10 5.4 WNW | 298 10.3 WNW | 294 62.8 49.3
10/14/19 - 1000 61.5 6.0 11 5.1 WNW | 295 8.3 WNW | 300 62.4 49.3
10/14/19 - 0950 60.9 4.7 10 5.0 WNW | 298 7.7 W | 273 61.5 49.3
10/14/19 - 0940 60.0 5.7 11 5.8 WNW | 299 7.9 WNW | 290 60.8 49.3
10/14/19 - 0930 59.4 6.6 12 6.7 WNW | 299 9.9 WNW | 284 60.1 49.3
10/14/19 - 0920 59.0 11.0 15 6.7 WNW | 296 9.2 WNW | 295 59.5 49.3
10/14/19 - 0910 58.1 15.5 19 7.4 WNW | 295 9.2 WNW | 298 59.3 49.3
10/14/19 - 0900 57.2 20.8 24 7.8 WNW | 300 9.6 WNW | 300 59.3 49.3
10/14/19 - 0850 56.1 23.9 29 7.5 NW | 305 9.6 WNW | 303 59.3 49.3
10/14/19 - 0840 54.7 26.5 34 8.2 NW | 308 10.5 NW | 307 59.3 49.3
10/14/19 - 0830 53.7 26.4 35 10.1 NW | 312 13.4 NW | 312 59.3 49.3
10/14/19 - 0820 53.0 26.4 35 10.7 NW | 309 13.2 NW | 314 59.3 49.3
10/14/19 - 0810 52.7 25.7 35 11.4 NW | 308 14.5 NW | 309 59.3 49.3
10/14/19 - 0800 52.6 24.9 34 12.5 NW | 310 16.2 NW | 314 59.3 49.3
10/14/19 - 0750 52.3 24.8 34 14.3 NW | 311 17.8 WNW | 301 59.3 49.3
10/14/19 - 0740 52.1 24.9 34 14.1 NW | 311 16.9 NW | 315 59.3 49.3
10/14/19 - 0730 52.1 25.2 35 14.7 NW | 312 17.5 NW | 321 59.3 49.3
10/14/19 - 0720 51.9 25.7 36 15.8 NW | 316 18.2 NW | 314 59.3 49.3
10/14/19 - 0710 51.8 25.6 36 15.5 NW | 317 18.4 NW | 316 59.3 49.3
10/14/19 - 0700 51.5 27.0 38 15.6 NW | 317 18.0 NW | 321 59.3 49.3
10/14/19 - 0650 51.3 28.3 41 16.8 NW | 317 19.3 NW | 313 59.3 49.3
10/14/19 - 0640 51.0 29.2 43 16.6 NW | 316 19.3 NW | 314 59.3 49.3
10/14/19 - 0630 51.1 30.0 44 16.9 NW | 312 19.7 NW | 315 59.3 49.3
10/14/19 - 0620 51.1 31.4 47 17.6 NW | 315 19.5 NW | 318 59.3 49.3
10/14/19 - 0610 50.8 32.5 49 17.3 NW | 314 21.5 NW | 312 59.3 49.3
10/14/19 - 0600 50.6 32.0 49 17.9 NW | 314 20.2 NW | 312 59.3 49.3
10/14/19 - 0550 50.3 30.9 47 16.8 NW | 312 19.5 NW | 311 59.3 49.3
10/14/19 - 0540 50.4 31.1 47 15.9 NW | 311 19.3 NW | 312 59.3 49.3
10/14/19 - 0530 50.4 34.6 54 16.2 NW | 311 18.8 NW | 307 59.3 49.3
10/14/19 - 0520 49.9 35.8 58 16.0 NW | 309 19.1 NW | 306 59.3 49.3
10/14/19 - 0510 49.6 31.5 50 15.8 NW | 304 18.4 WNW | 299 59.3 49.3
10/14/19 - 0500 50.5 24.6 36 14.3 WNW | 303 17.1 WNW | 303 59.3 49.4
10/14/19 - 0450 51.5 22.4 32 14.4 WNW | 301 16.9 WNW | 299 59.3 50.9
10/14/19 - 0440 51.9 21.3 30 14.4 NW | 304 16.7 WNW | 302 59.3 51.4
10/14/19 - 0430 53.3 20.3 27 14.0 NW | 310 16.2 NW | 307 59.3 52.0
10/14/19 - 0420 53.5 18.2 25 14.0 NW | 310 16.9 NW | 309 59.3 52.0
10/14/19 - 0410 53.4 15.8 22 13.0 NW | 310 14.9 NW | 312 59.3 52.0
10/14/19 - 0400 52.4 18.5 26 12.4 NW | 309 14.5 NW | 305 59.3 52.0
10/14/19 - 0350 52.5 20.2 28 12.4 NW | 304 14.9 WNW | 300 59.3 52.0
10/14/19 - 0340 54.0 19.7 26 13.2 WNW | 299 16.2 WNW | 294 59.3 53.3
10/14/19 - 0330 55.6 17.0 22 13.8 WNW | 298 17.1 WNW | 299 59.3 53.3
10/14/19 - 0320 54.6 19.0 25 12.8 WNW | 301 15.6 WNW | 300 59.3 53.3
10/14/19 - 0310 54.6 18.0 24 12.1 WNW | 299 16.2 WNW | 286 59.3 53.3
10/14/19 - 0300 55.4 17.2 22 10.6 WNW | 302 12.7 WNW | 294 59.3 53.8
10/14/19 - 0250 55.1 21.9 27 9.3 WNW | 299 11.2 WNW | 302 59.3 53.8
10/14/19 - 0240 54.1 24.6 32 11.0 WNW | 302 13.6 WNW | 298 59.3 53.8
10/14/19 - 0230 55.1 25.5 32 10.2 WNW | 295 14.2 WNW | 294 59.3 54.2
10/14/19 - 0220 54.9 27.0 34 9.8 WNW | 303 12.5 NW | 309 59.3 54.4
10/14/19 - 0210 55.2 27.2 34 9.8 WNW | 303 13.4 WNW | 303 59.3 54.6
10/14/19 - 0200 55.8 28.2 34 10.0 NW | 311 13.8 NW | 310 59.3 54.6
10/14/19 - 0150 56.3 27.7 33 9.3 WNW | 295 14.0 WNW | 303 59.3 54.6
10/14/19 - 0140 58.4 24.4 27 6.5 W | 270 9.6 W | 272 59.3 57.1
10/14/19 - 0130 58.0 25.7 29 5.4 WNW | 287 7.5 W | 279 58.9 57.1
10/14/19 - 0120 57.7 24.8 28 5.8 W | 281 10.7 W | 279 58.5 57.1
10/14/19 - 0110 58.0 27.9 32 4.7 WNW | 296 8.3 WSW | 241 58.5 57.1
10/14/19 - 0100 57.8 30.0 35 5.8 W | 273 9.0 W | 274 71.9 53.6
10/14/19 - 0050 57.7 32.0 38 6.1 W | 280 10.7 WNW | 291 71.9 53.6
10/14/19 - 0040 57.1 37.9 49 6.2 WNW | 289 9.4 WNW | 283 71.9 53.6
10/14/19 - 0030 57.3 40.0 52 5.9 NW | 309 7.7 WNW | 303 71.9 53.6
10/14/19 - 0020 57.3 41.5 55 5.2 NW | 306 9.2 NW | 308 71.9 53.6
10/14/19 - 0010 56.8 41.6 57 7.1 NW | 311 8.6 NW | 310 71.9 53.6
10/14/19 - 0000 56.9 41.4 56 7.4 WNW | 302 8.8 WNW | 300 71.9 53.6
10/13/19 - 2350 56.0 40.4 55 7.5 WNW | 303 9.0 WNW | 303 71.9 53.6
10/13/19 - 2340 55.0 38.3 53 7.8 WNW | 303 10.7 WNW | 300 71.9 53.6
10/13/19 - 2330 54.3 37.9 54 10.1 WNW | 295 12.5 WNW | 298 71.9 53.6
10/13/19 - 2320 55.1 40.0 56 9.6 WNW | 296 12.1 WNW | 302 71.9 53.9
10/13/19 - 2310 57.0 41.3 56 6.4 NW | 305 8.8 WNW | 302 71.9 54.1
10/13/19 - 2300 58.4 42.5 55 7.3 WNW | 287 9.4 WNW | 284 71.9 54.1
10/13/19 - 2250 58.5 42.8 56 7.2 WNW | 302 8.8 WNW | 292 71.9 54.1
10/13/19 - 2240 58.6 42.7 55 7.0 NW | 307 8.6 NW | 307 71.9 54.1
10/13/19 - 2230 58.5 42.0 54 7.0 NW | 307 8.8 NW | 306 71.9 54.1
10/13/19 - 2220 57.6 41.3 54 8.3 NW | 311 9.6 NW | 312 71.9 54.1
10/13/19 - 2210 57.1 42.2 57 9.1 NW | 317 10.7 NW | 320 71.9 54.1
10/13/19 - 2200 56.8 42.0 58 9.7 NW | 322 11.4 NW | 318 71.9 54.1
10/13/19 - 2150 56.3 41.3 57 11.5 NW | 317 14.7 NW | 317 71.9 54.1
10/13/19 - 2140 56.3 40.1 54 12.5 NW | 310 15.6 NW | 313 71.9 54.1
10/13/19 - 2130 56.7 39.8 53 12.0 NW | 312 14.9 NW | 310 71.9 54.1
10/13/19 - 2120 56.3 39.3 53 11.8 NW | 311 14.5 NW | 317 71.9 54.1
10/13/19 - 2110 55.4 39.6 55 12.1 NW | 312 13.8 NW | 310 71.9 54.1
10/13/19 - 2100 54.5 40.3 59 12.1 NW | 306 14.2 NW | 306 71.9 54.1
10/13/19 - 2050 55.4 41.0 58 11.5 NW | 306 14.0 NW | 312 71.9 54.9
10/13/19 - 2040 56.2 41.3 57 10.9 WNW | 302 15.1 WNW | 302 71.9 55.6
10/13/19 - 2030 57.2 41.3 55 10.7 NW | 304 13.2 WNW | 294 71.9 56.8
10/13/19 - 2020 57.9 39.7 51 10.3 NW | 308 13.2 NW | 305 71.9 57.4
10/13/19 - 2010 58.9 38.7 47 9.0 NW | 310 11.2 NW | 312 71.9 58.4
10/13/19 - 2000 60.0 37.0 42 9.0 NW | 304 10.7 WNW | 300 71.9 58.8
10/13/19 - 1950 60.5 34.8 38 7.9 NW | 305 11.6 WNW | 299 71.9 58.8
10/13/19 - 1940 61.3 35.3 38 6.6 WNW | 299 9.0 WNW | 295 71.9 58.8
10/13/19 - 1930 62.6 33.4 34 4.9 WNW | 298 7.0 WNW | 296 71.9 58.8
10/13/19 - 1920 63.8 19.2 18 2.0 SSE | 147 3.3 SSE | 167 71.9 58.8
10/13/19 - 1910 63.0 19.6 19 0.4 SSE | 148 2.8 SE | 133 71.9 58.8
10/13/19 - 1900 63.4 25.5 24 0.5 W | 273 2.2 W | 268 71.9 58.8
10/13/19 - 1850 64.6 16.7 15 1.8 SE | 132 4.2 SE | 129 71.9 58.8
10/13/19 - 1840 65.0 16.4 15 4.1 SE | 138 6.6 SE | 134 71.9 58.8
10/13/19 - 1830 65.4 16.4 15 5.3 SE | 137 8.1 ESE | 123 71.9 58.8
10/13/19 - 1820 65.7 16.4 15 6.8 SE | 131 11.2 SE | 135 71.9 58.8
10/13/19 - 1810 66.2 16.4 14 9.3 SE | 129 12.5 SE | 134 71.9 58.8
10/13/19 - 1800 66.7 16.6 14 9.4 SE | 127 13.6 SE | 129 71.9 58.8
10/13/19 - 1750 67.2 16.7 14 10.2 SE | 130 13.8 ESE | 118 71.9 58.8
10/13/19 - 1740 67.6 16.8 14 9.7 SE | 132 14.9 SE | 130 71.9 58.8
10/13/19 - 1730 67.9 17.0 14 10.8 SE | 129 15.1 SE | 127 71.9 58.8
10/13/19 - 1720 68.3 17.2 14 11.9 SE | 129 16.7 SE | 128 71.9 58.8
10/13/19 - 1710 68.9 17.2 14 10.0 SE | 128 15.3 ESE | 123 71.9 58.8
10/13/19 - 1700 68.6 17.2 14 11.6 SE | 125 18.0 ESE | 122 71.9 58.8
10/13/19 - 1650 68.8 17.4 14 12.4 SE | 125 17.5 SE | 127 71.9 58.8
10/13/19 - 1640 69.0 17.0 13 12.7 SE | 131 18.8 SE | 138 71.9 58.8
10/13/19 - 1630 69.1 16.7 13 13.3 SE | 125 21.0 ESE | 115 71.9 58.8
10/13/19 - 1620 69.5 16.9 13 12.4 SE | 133 18.0 ESE | 116 71.9 58.8
10/13/19 - 1610 69.2 16.5 13 14.5 ESE | 118 21.3 ESE | 118 71.9 58.8
10/13/19 - 1600 69.3 16.3 13 14.5 SE | 126 21.0 SE | 131 71.9 58.8
10/13/19 - 1550 69.7 16.3 13 13.3 ESE | 122 20.0 ESE | 110 71.9 58.8
10/13/19 - 1540 69.5 16.2 13 14.1 ESE | 120 20.0 ESE | 118 71.9 58.8
10/13/19 - 1530 70.5 16.4 13 12.7 SE | 137 21.5 ESE | 117 71.9 58.8
10/13/19 - 1520 69.5 16.2 13 15.5 SE | 131 23.9 ESE | 113 71.8 58.8
10/13/19 - 1510 70.2 16.2 13 14.3 SE | 133 21.0 SE | 134 71.8 58.8
10/13/19 - 1500 70.5 16.0 12 13.6 SE | 129 22.4 ESE | 123 71.8 58.8
10/13/19 - 1450 69.7 15.8 13 15.0 ESE | 121 21.3 ESE | 118 71.8 58.8
10/13/19 - 1440 69.6 16.0 13 14.4 SE | 127 21.3 ESE | 122 71.8 58.8
10/13/19 - 1430 70.1 15.9 12 13.4 ESE | 123 21.3 SE | 127 71.8 58.8
10/13/19 - 1420 70.4 15.9 12 13.3 SE | 125 20.6 ESE | 106 71.8 58.8
10/13/19 - 1410 69.6 16.1 13 12.7 ESE | 123 26.3 SE | 124 71.8 58.8
10/13/19 - 1400 69.4 15.8 13 14.8 ESE | 121 22.6 SE | 131 71.8 58.8
10/13/19 - 1350 69.4 15.6 12 13.6 SE | 125 22.1 SE | 135 71.8 58.8
10/13/19 - 1340 69.0 16.0 13 14.7 ESE | 121 22.8 ESE | 110 71.8 58.8
10/13/19 - 1330 69.3 16.3 13 14.4 ESE | 116 20.8 ESE | 104 71.8 58.8
10/13/19 - 1320 69.4 16.1 13 13.7 ESE | 120 21.3 ESE | 117 71.8 58.8
10/13/19 - 1310 69.3 15.5 13 14.1 SE | 125 23.0 ESE | 110 71.8 58.8
10/13/19 - 1300 69.0 15.0 12 16.2 ESE | 120 24.1 ESE | 119 71.8 58.8
10/13/19 - 1250 70.3 15.2 12 12.2 SE | 126 22.8 ESE | 121 71.8 58.8
10/13/19 - 1240 68.9 14.8 12 15.6 ESE | 121 22.6 ESE | 110 70.7 58.8
10/13/19 - 1230 69.3 15.2 12 13.7 ESE | 114 21.3 E | 91 70.7 58.8
10/13/19 - 1220 68.6 14.9 12 15.1 ESE | 113 24.3 E | 92 70.7 58.8
10/13/19 - 1210 69.1 15.0 12 14.6 ESE | 117 25.2 ESE | 119 70.7 58.8
Max 70.5 42.8 59 17.9 - 26.3 - 71.9 58.8
Avg 60.2 23.3 29 10.4 - 14.4 - - -
Min 49.6 0.2 6 0.4 - 2.2 - 58.5 49.3